createdAt,value
2023-10-03T00:01:08.598Z,95202.19
2023-10-03T00:03:35.385Z,95201.94
2023-10-03T00:06:02.117Z,95204.88
2023-10-03T00:08:28.965Z,95208.38
2023-10-03T00:10:55.951Z,95197.03
2023-10-03T00:13:23.155Z,95199.53
2023-10-03T00:15:49.999Z,95200.66
2023-10-03T00:18:18.120Z,95196.50
2023-10-03T00:20:44.982Z,95191.25
2023-10-03T00:23:11.896Z,95191.53
2023-10-03T00:25:39.733Z,95191.84
2023-10-03T00:28:07.290Z,95198.28
2023-10-03T00:30:37.189Z,95190.13
2023-10-03T00:33:06.463Z,95189.03
2023-10-03T00:35:35.830Z,95177.88
2023-10-03T00:38:06.895Z,95168.94
2023-10-03T00:40:33.508Z,95187.72
2023-10-03T00:43:01.870Z,95173.44
2023-10-03T00:45:30.464Z,95170.25
2023-10-03T00:48:02.166Z,95164.94
2023-10-03T00:50:30.132Z,95166.06
2023-10-03T00:52:59.353Z,95169.97
2023-10-03T00:55:27.875Z,95170.44
2023-10-03T00:58:07.641Z,95162.69
2023-10-03T01:00:38.582Z,95159.69
2023-10-03T01:03:10.430Z,95163.78
2023-10-03T01:05:38.776Z,95166.13
2023-10-03T01:08:08.257Z,95161.38
2023-10-03T01:10:35.091Z,95159.50
2023-10-03T01:13:09.345Z,95153.72
2023-10-03T01:15:36.434Z,95151.69
2023-10-03T01:18:04.403Z,95159.44
2023-10-03T01:20:41.928Z,95156.81
2023-10-03T01:23:11.337Z,95155.91
2023-10-03T01:25:44.619Z,95157.28
2023-10-03T01:28:11.991Z,95156.78
2023-10-03T01:30:42.075Z,95143.97
2023-10-03T01:33:10.190Z,95143.97
2023-10-03T01:35:37.464Z,95157.88
2023-10-03T01:38:06.196Z,95150.47
2023-10-03T01:40:34.280Z,95140.31
2023-10-03T01:43:00.912Z,95131.75
2023-10-03T01:45:29.444Z,95134.78
2023-10-03T01:48:00.511Z,95134.00
2023-10-03T01:50:32.563Z,95137.38
2023-10-03T01:52:59.203Z,95142.28
2023-10-03T01:55:25.942Z,95138.28
2023-10-03T01:57:53.900Z,95131.94
2023-10-03T02:00:29.515Z,95129.34
2023-10-03T02:02:58.391Z,95130.69
2023-10-03T02:05:26.486Z,95137.06
2023-10-03T02:07:56.302Z,95132.19
2023-10-03T02:10:23.980Z,95129.78
2023-10-03T02:12:51.184Z,95121.81
2023-10-03T02:15:26.321Z,95136.44
2023-10-03T02:17:54.711Z,95134.84
2023-10-03T02:20:22.743Z,95131.06
2023-10-03T02:22:55.670Z,95123.13
2023-10-03T02:25:25.363Z,95128.41
2023-10-03T02:27:54.222Z,95135.13
2023-10-03T02:30:30.163Z,95125.34
2023-10-03T02:32:59.018Z,95125.34
2023-10-03T02:35:26.838Z,95118.34
2023-10-03T02:37:57.731Z,95110.97
2023-10-03T02:40:28.031Z,95125.88
2023-10-03T02:42:55.453Z,95120.88
2023-10-03T02:45:24.549Z,95107.41
2023-10-03T02:47:57.788Z,95111.50
2023-10-03T02:50:25.046Z,95103.38
2023-10-03T02:52:52.661Z,95106.19
2023-10-03T02:55:19.325Z,95101.16
2023-10-03T02:57:46.393Z,95103.47
2023-10-03T03:00:15.600Z,95098.97
2023-10-03T03:02:49.298Z,95091.44
2023-10-03T03:05:16.929Z,95089.63
2023-10-03T03:07:45.576Z,95083.25
2023-10-03T03:10:15.690Z,95088.97
2023-10-03T03:12:44.261Z,95084.59
2023-10-03T03:15:12.267Z,95077.88
2023-10-03T03:17:42.048Z,95078.50
2023-10-03T03:20:22.066Z,95080.88
2023-10-03T03:22:49.675Z,95074.34
2023-10-03T03:25:25.980Z,95075.41
2023-10-03T03:27:56.048Z,95076.22
2023-10-03T03:30:28.499Z,95074.03
2023-10-03T03:32:55.788Z,95071.19
2023-10-03T03:35:23.952Z,95066.94
2023-10-03T03:37:50.604Z,95069.47
2023-10-03T03:40:30.822Z,95087.09
2023-10-03T03:42:59.119Z,95076.94
2023-10-03T03:45:27.179Z,95073.59
2023-10-03T03:47:53.951Z,95068.22
2023-10-03T03:50:21.729Z,95073.38
2023-10-03T03:52:50.424Z,95073.44
2023-10-03T03:55:20.072Z,95067.84
2023-10-03T03:57:46.917Z,95064.94
2023-10-03T04:00:21.594Z,95062.31
2023-10-03T04:02:49.776Z,95063.41
2023-10-03T04:05:18.910Z,95064.81
2023-10-03T04:07:45.791Z,95059.97
2023-10-03T04:10:14.980Z,95065.47
2023-10-03T04:12:44.542Z,95058.09
2023-10-03T04:15:19.624Z,95045.09
2023-10-03T04:17:50.313Z,95050.72
2023-10-03T04:20:26.528Z,95057.50
2023-10-03T04:22:53.576Z,95063.13
2023-10-03T04:25:22.242Z,95060.88
2023-10-03T04:27:50.027Z,95061.78
2023-10-03T04:30:17.536Z,95056.63
2023-10-03T04:32:44.598Z,95063.88
2023-10-03T04:35:19.290Z,95063.22
2023-10-03T04:37:53.163Z,95061.66
2023-10-03T04:40:36.252Z,95067.16
2023-10-03T04:43:15.879Z,95061.88
2023-10-03T04:45:43.183Z,95072.91
2023-10-03T04:48:13.556Z,95063.53
2023-10-03T04:50:41.923Z,95069.19
2023-10-03T04:53:15.467Z,95068.44
2023-10-03T04:55:49.322Z,95077.34
2023-10-03T04:58:16.673Z,95081.69
2023-10-03T05:00:43.904Z,95075.66
2023-10-03T05:03:11.096Z,95086.94
2023-10-03T05:05:38.508Z,95090.78
2023-10-03T05:08:06.097Z,95084.09
2023-10-03T05:10:34.735Z,95089.78
2023-10-03T05:13:03.228Z,95086.72
2023-10-03T05:15:31.176Z,95094.03
2023-10-03T05:18:01.872Z,95091.16
2023-10-03T05:20:42.187Z,95096.50
2023-10-03T05:23:09.050Z,95093.31
2023-10-03T05:25:38.918Z,95090.66
2023-10-03T05:28:07.361Z,95092.53
2023-10-03T05:30:36.415Z,95095.69
2023-10-03T05:33:05.744Z,95108.44
2023-10-03T05:35:32.651Z,95094.56
2023-10-03T05:37:59.554Z,95083.63
2023-10-03T05:40:26.351Z,95084.22
2023-10-03T05:42:53.574Z,95091.69
2023-10-03T05:45:21.756Z,95092.13
2023-10-03T05:47:50.012Z,95095.97
2023-10-03T05:50:21.780Z,95097.16
2023-10-03T05:52:49.092Z,95096.16
2023-10-03T05:55:16.150Z,95092.38
2023-10-03T05:57:44.328Z,95094.28
2023-10-03T06:00:17.405Z,95096.97
2023-10-03T06:02:48.240Z,95094.34
2023-10-03T06:05:18.287Z,95094.00
2023-10-03T06:07:46.446Z,95094.50
2023-10-03T06:10:14.588Z,95099.13
2023-10-03T06:12:41.946Z,95094.31
2023-10-03T06:15:10.079Z,95100.09
2023-10-03T06:17:36.794Z,95102.94
2023-10-03T06:20:07.425Z,95093.34
2023-10-03T06:22:34.509Z,95102.56
2023-10-03T06:25:01.372Z,95100.72
2023-10-03T06:27:28.442Z,95100.78
2023-10-03T06:29:55.388Z,95106.13
2023-10-03T06:32:22.394Z,95109.97
2023-10-03T06:34:49.110Z,95112.25
2023-10-03T06:37:17.572Z,95110.22
2023-10-03T06:39:44.290Z,95122.31
2023-10-03T06:42:11.609Z,95118.16
2023-10-03T06:44:38.597Z,95109.09
2023-10-03T06:47:05.614Z,95113.47
2023-10-03T06:49:32.666Z,95113.72
2023-10-03T06:52:02.982Z,95115.91
2023-10-03T06:54:31.046Z,95113.66
2023-10-03T06:56:57.927Z,95116.84
2023-10-03T06:59:24.702Z,95124.91
2023-10-03T07:01:51.929Z,95115.97
2023-10-03T07:04:19.902Z,95116.91
2023-10-03T07:06:47.169Z,95115.47
2023-10-03T07:09:15.321Z,95115.59
2023-10-03T07:11:43.427Z,95116.69
2023-10-03T07:14:12.879Z,95111.63
2023-10-03T07:16:40.247Z,95115.38
2023-10-03T07:19:07.042Z,95116.47
2023-10-03T07:21:37.252Z,95111.72
2023-10-03T07:24:05.193Z,95112.75
2023-10-03T07:26:33.358Z,95105.06
2023-10-03T07:29:03.432Z,95107.88
2023-10-03T07:31:33.343Z,95104.38
2023-10-03T07:34:00.538Z,95107.16
2023-10-03T07:36:27.254Z,95104.03
2023-10-03T07:38:53.969Z,95109.78
2023-10-03T07:41:22.431Z,95115.81
2023-10-03T07:43:49.172Z,95113.63
2023-10-03T07:46:24.997Z,95106.56
2023-10-03T07:48:54.333Z,95105.84
2023-10-03T07:51:27.178Z,95106.06
2023-10-03T07:53:54.342Z,95111.44
2023-10-03T07:56:34.981Z,95115.66
2023-10-03T07:59:06.438Z,95108.34
2023-10-03T08:01:53.761Z,95110.41
2023-10-03T08:04:25.638Z,95108.53
2023-10-03T08:06:52.439Z,95117.16
2023-10-03T08:09:19.133Z,95122.38
2023-10-03T08:11:48.316Z,95130.22
2023-10-03T08:14:15.349Z,95120.81
2023-10-03T08:16:44.297Z,95129.53
2023-10-03T08:19:22.602Z,95133.28
2023-10-03T08:21:49.825Z,95132.72
2023-10-03T08:24:20.327Z,95131.81
2023-10-03T08:26:48.018Z,95133.16
2023-10-03T08:29:24.296Z,95132.91
2023-10-03T08:32:00.085Z,95138.56
2023-10-03T08:34:27.052Z,95135.75
2023-10-03T08:37:00.491Z,95137.00
2023-10-03T08:39:28.073Z,95131.13
2023-10-03T08:42:12.546Z,95137.09
2023-10-03T08:44:51.149Z,95132.22
2023-10-03T08:47:21.409Z,95134.56
2023-10-03T08:50:00.229Z,95135.56
2023-10-03T08:52:40.743Z,95133.19
2023-10-03T08:55:09.737Z,95128.00
2023-10-03T08:57:41.258Z,95132.16
2023-10-03T09:00:10.852Z,95125.03
2023-10-03T09:02:49.821Z,95131.69
2023-10-03T09:05:21.568Z,95123.59
2023-10-03T09:07:48.983Z,95122.34
2023-10-03T09:10:23.981Z,95134.00
2023-10-03T09:12:51.377Z,95118.97
2023-10-03T09:15:23.648Z,95115.28
2023-10-03T09:17:54.056Z,95121.19
2023-10-03T09:20:22.380Z,95108.69
2023-10-03T09:22:49.673Z,95108.09
2023-10-03T09:25:22.859Z,95103.16
2023-10-03T09:27:49.633Z,95098.28
2023-10-03T09:30:25.600Z,95102.00
2023-10-03T09:32:55.164Z,95096.72
2023-10-03T09:35:22.303Z,95097.47
2023-10-03T09:37:51.703Z,95086.56
2023-10-03T09:40:19.163Z,95087.75
2023-10-03T09:42:49.844Z,95083.78
2023-10-03T09:45:19.154Z,95079.94
2023-10-03T09:47:47.069Z,95085.31
2023-10-03T09:50:15.393Z,95081.44
2023-10-03T09:52:51.280Z,95086.00
2023-10-03T09:55:22.301Z,95070.69
2023-10-03T09:57:53.408Z,95075.34
2023-10-03T10:00:47.766Z,95071.59
2023-10-03T10:03:29.576Z,95071.63
2023-10-03T10:06:17.119Z,95069.22
2023-10-03T10:08:49.793Z,95072.19
2023-10-03T10:11:16.537Z,95072.47
2023-10-03T10:14:09.693Z,95075.94
2023-10-03T10:16:36.828Z,95073.47
2023-10-03T10:19:05.346Z,95068.94
2023-10-03T10:21:38.522Z,95071.06
2023-10-03T10:24:28.893Z,95074.72
2023-10-03T10:26:56.306Z,95069.50
2023-10-03T10:29:25.603Z,95079.31
2023-10-03T10:31:59.269Z,95071.81
2023-10-03T10:34:41.386Z,95065.44
2023-10-03T10:37:11.246Z,95066.75
2023-10-03T10:40:11.771Z,95061.31
2023-10-03T10:43:05.631Z,95062.75
2023-10-03T10:45:40.029Z,95059.00
2023-10-03T10:48:08.144Z,95060.28
2023-10-03T10:51:09.082Z,95051.97
2023-10-03T10:53:45.728Z,95047.53
2023-10-03T10:56:14.145Z,95046.63
2023-10-03T10:58:52.268Z,95046.78
2023-10-03T11:01:19.631Z,95046.78
2023-10-03T11:03:46.698Z,95042.50
2023-10-03T11:06:17.481Z,95041.00
2023-10-03T11:08:49.094Z,95041.81
2023-10-03T11:11:16.255Z,95040.84
2023-10-03T11:13:47.830Z,95041.28
2023-10-03T11:16:26.342Z,95047.94
2023-10-03T11:18:55.927Z,95032.25
2023-10-03T11:21:24.208Z,95032.81
2023-10-03T11:24:14.823Z,95018.47
2023-10-03T11:26:49.617Z,95017.00
2023-10-03T11:29:34.649Z,95014.28
2023-10-03T11:32:02.503Z,95013.16
2023-10-03T11:34:30.807Z,95009.25
2023-10-03T11:36:57.491Z,94999.97
2023-10-03T11:39:27.394Z,95006.47
2023-10-03T11:41:54.081Z,95003.25
2023-10-03T11:44:21.981Z,95000.47
2023-10-03T11:46:49.756Z,94994.47
2023-10-03T11:49:17.073Z,94987.56
2023-10-03T11:51:44.872Z,94988.16
2023-10-03T11:54:12.161Z,94986.41
2023-10-03T11:56:48.180Z,94979.41
2023-10-03T11:59:16.403Z,94982.44
2023-10-03T12:01:44.215Z,94976.75
2023-10-03T12:04:11.972Z,94977.31
2023-10-03T12:06:38.836Z,94976.03
2023-10-03T12:09:10.231Z,94974.88
2023-10-03T12:11:38.644Z,94977.69
2023-10-03T12:14:06.705Z,94970.94
2023-10-03T12:16:33.587Z,94970.75
2023-10-03T12:19:00.411Z,94973.19
2023-10-03T12:21:27.294Z,94965.84
2023-10-03T12:23:54.077Z,94972.09
2023-10-03T12:26:27.803Z,94950.69
2023-10-03T12:28:55.133Z,94946.16
2023-10-03T12:31:30.054Z,94954.97
2023-10-03T12:33:57.113Z,94953.88
2023-10-03T12:36:24.013Z,94950.06
2023-10-03T12:38:50.848Z,94952.44
2023-10-03T12:41:17.788Z,94955.31
2023-10-03T12:43:47.670Z,94948.94
2023-10-03T12:46:15.118Z,94949.53
2023-10-03T12:48:43.504Z,94950.78
2023-10-03T12:51:10.348Z,94948.97
2023-10-03T12:53:37.590Z,94944.19
2023-10-03T12:56:05.053Z,94945.06
2023-10-03T12:58:32.760Z,94949.53
2023-10-03T13:00:59.507Z,94949.75
2023-10-03T13:03:26.578Z,94946.44
2023-10-03T13:05:57.127Z,94933.34
2023-10-03T13:08:26.165Z,94937.59
2023-10-03T13:10:55.081Z,94937.81
2023-10-03T13:13:22.736Z,94930.94
2023-10-03T13:15:51.074Z,94931.56
2023-10-03T13:18:18.093Z,94947.72
2023-10-03T13:20:46.457Z,94945.75
2023-10-03T13:23:14.611Z,94941.88
2023-10-03T13:25:41.345Z,94943.22
2023-10-03T13:28:11.845Z,94945.38
2023-10-03T13:30:39.091Z,94932.06
2023-10-03T13:33:05.854Z,94933.97
2023-10-03T13:35:34.611Z,94939.88
2023-10-03T13:38:01.440Z,94941.31
2023-10-03T13:40:29.470Z,94942.19
2023-10-03T13:42:58.776Z,94950.50
2023-10-03T13:45:25.552Z,94952.22
2023-10-03T13:47:52.439Z,94950.09
2023-10-03T13:50:19.629Z,94954.78
2023-10-03T13:52:48.324Z,94952.88
2023-10-03T13:55:19.436Z,94947.00
2023-10-03T13:57:49.219Z,94946.34
2023-10-03T14:00:16.520Z,94955.88
2023-10-03T14:02:48.393Z,94956.34
2023-10-03T14:05:17.637Z,94954.09
2023-10-03T14:07:44.514Z,94950.84
2023-10-03T14:10:14.526Z,94957.94
2023-10-03T14:12:41.691Z,94958.88
2023-10-03T14:15:21.559Z,94954.91
2023-10-03T14:17:49.037Z,94955.75
2023-10-03T14:20:17.290Z,94962.16
2023-10-03T14:22:44.272Z,94948.94
2023-10-03T14:25:13.676Z,94958.28
2023-10-03T14:27:42.786Z,94969.50
2023-10-03T14:30:12.360Z,94964.84
2023-10-03T14:32:41.739Z,94970.09
2023-10-03T14:35:09.561Z,94973.38
2023-10-03T14:37:36.446Z,94974.47
2023-10-03T14:40:10.112Z,94965.06
2023-10-03T14:42:37.560Z,94975.28
2023-10-03T14:45:05.756Z,94976.94
2023-10-03T14:47:34.172Z,94992.34
2023-10-03T14:50:01.256Z,94989.88
2023-10-03T14:52:27.954Z,94980.31
2023-10-03T14:54:54.584Z,94988.78
2023-10-03T14:57:21.606Z,94975.66
2023-10-03T14:59:50.305Z,94981.97
2023-10-03T15:02:17.032Z,94983.31
2023-10-03T15:04:46.694Z,94980.78
2023-10-03T15:07:17.887Z,94994.59
2023-10-03T15:09:45.326Z,94996.88
2023-10-03T15:12:12.342Z,95003.44
2023-10-03T15:14:39.186Z,95004.22
2023-10-03T15:17:06.088Z,95017.59
2023-10-03T15:19:35.439Z,95008.34
2023-10-03T15:22:06.422Z,95018.53
2023-10-03T15:24:33.158Z,95025.16
2023-10-03T15:26:59.872Z,95019.38
2023-10-03T15:29:26.575Z,95030.97
2023-10-03T15:31:54.612Z,95022.81
2023-10-03T15:34:29.169Z,95034.94
2023-10-03T15:36:55.889Z,95028.84
2023-10-03T15:39:24.013Z,95029.13
2023-10-03T15:41:51.216Z,95042.81
2023-10-03T15:44:21.010Z,95049.81
2023-10-03T15:46:48.744Z,95053.94
2023-10-03T15:49:15.863Z,95048.38
2023-10-03T15:51:42.647Z,95058.59
2023-10-03T15:54:10.080Z,95057.03
2023-10-03T15:56:38.533Z,95059.69
2023-10-03T15:59:05.692Z,95064.00
2023-10-03T16:01:32.487Z,95077.84
2023-10-03T16:03:59.646Z,95077.66
2023-10-03T16:06:27.499Z,95080.13
2023-10-03T16:08:54.848Z,95082.78
2023-10-03T16:11:22.004Z,95090.28
2023-10-03T16:13:49.947Z,95099.03
2023-10-03T16:16:17.000Z,95097.50
2023-10-03T16:18:47.975Z,95102.88
2023-10-03T16:21:15.010Z,95103.50
2023-10-03T16:23:41.718Z,95114.41
2023-10-03T16:26:08.372Z,95119.00
2023-10-03T16:28:36.228Z,95129.63
2023-10-03T16:31:06.033Z,95131.06
2023-10-03T16:33:33.857Z,95131.22
2023-10-03T16:36:00.732Z,95129.34
2023-10-03T16:38:27.510Z,95131.50
2023-10-03T16:40:54.161Z,95132.59
2023-10-03T16:43:20.839Z,95136.97
2023-10-03T16:45:48.312Z,95140.97
2023-10-03T16:48:16.502Z,95144.97
2023-10-03T16:50:43.432Z,95140.69
2023-10-03T16:53:10.111Z,95145.78
2023-10-03T16:55:36.865Z,95154.81
2023-10-03T16:58:04.654Z,95157.72
2023-10-03T17:00:31.855Z,95148.91
2023-10-03T17:03:00.212Z,95154.22
2023-10-03T17:05:30.639Z,95174.63
2023-10-03T17:07:58.566Z,95181.81
2023-10-03T17:10:25.381Z,95191.50
2023-10-03T17:12:52.388Z,95202.28
2023-10-03T17:15:19.124Z,95205.28
2023-10-03T17:17:51.160Z,95217.34
2023-10-03T17:20:19.001Z,95227.44
2023-10-03T17:22:47.069Z,95219.22
2023-10-03T17:25:13.677Z,95236.31
2023-10-03T17:27:41.781Z,95258.56
2023-10-03T17:30:10.282Z,95253.00
2023-10-03T17:32:36.978Z,95260.34
2023-10-03T17:35:06.516Z,95273.41
2023-10-03T17:37:33.375Z,95272.84
2023-10-03T17:40:01.392Z,95275.88
2023-10-03T17:42:30.455Z,95284.56
2023-10-03T17:44:57.512Z,95296.94
2023-10-03T17:47:28.918Z,95301.31
2023-10-03T17:49:57.337Z,95315.47
2023-10-03T17:52:24.135Z,95327.72
2023-10-03T17:54:50.777Z,95329.47
2023-10-03T17:57:18.992Z,95341.53
2023-10-03T18:00:00.358Z,95341.47
2023-10-03T18:02:31.522Z,95353.34
2023-10-03T18:04:58.173Z,95366.47
2023-10-03T18:07:24.824Z,95364.75
2023-10-03T18:09:51.710Z,95380.56
2023-10-03T18:12:19.709Z,95389.09
2023-10-03T18:14:47.132Z,95409.94
2023-10-03T18:17:13.837Z,95406.63
2023-10-03T18:19:41.292Z,95407.19
2023-10-03T18:22:08.101Z,95418.84
2023-10-03T18:24:37.366Z,95447.66
2023-10-03T18:27:04.573Z,95458.94
2023-10-03T18:29:32.566Z,95458.09
2023-10-03T18:31:59.425Z,95454.91
2023-10-03T18:34:26.036Z,95459.66
2023-10-03T18:36:52.966Z,95478.13
2023-10-03T18:39:20.662Z,95469.22
2023-10-03T18:41:47.357Z,95487.53
2023-10-03T18:44:16.625Z,95474.16
2023-10-03T18:46:45.134Z,95494.13
2023-10-03T18:49:13.859Z,95523.16
2023-10-03T18:51:40.631Z,95517.78
2023-10-03T18:54:07.448Z,95522.09
2023-10-03T18:56:34.645Z,95525.06
2023-10-03T18:59:01.681Z,95527.44
2023-10-03T19:01:46.009Z,95526.59
2023-10-03T19:04:17.117Z,95525.72
2023-10-03T19:06:44.072Z,95517.25
2023-10-03T19:09:13.824Z,95521.97
2023-10-03T19:11:41.144Z,95514.03
2023-10-03T19:14:07.793Z,95508.53
2023-10-03T19:16:35.106Z,95510.84
2023-10-03T19:19:02.137Z,95509.81
2023-10-03T19:21:32.452Z,95511.13
2023-10-03T19:23:59.136Z,95591.31
2023-10-03T19:26:25.795Z,95612.41
2023-10-03T19:28:52.475Z,95642.31
2023-10-03T19:31:20.041Z,95654.25
2023-10-03T19:33:47.479Z,95677.06
2023-10-03T19:36:15.072Z,95704.50
2023-10-03T19:38:44.123Z,95711.22
2023-10-03T19:41:13.140Z,95725.97
2023-10-03T19:43:40.650Z,95732.41
2023-10-03T19:46:10.633Z,95745.34
2023-10-03T19:48:37.342Z,95758.25
2023-10-03T19:51:07.167Z,95771.19
2023-10-03T19:53:33.934Z,95780.59
2023-10-03T19:56:12.352Z,95785.16
2023-10-03T19:58:40.955Z,95789.47
2023-10-03T20:01:07.649Z,95801.88
2023-10-03T20:03:34.841Z,95807.25
2023-10-03T20:06:01.622Z,95812.63
2023-10-03T20:08:29.212Z,95823.38
2023-10-03T20:10:55.948Z,95831.72
2023-10-03T20:13:23.975Z,95841.13
2023-10-03T20:15:50.996Z,95844.09
2023-10-03T20:18:17.903Z,95851.63
2023-10-03T20:20:44.787Z,95862.41
2023-10-03T20:23:12.492Z,95862.66
2023-10-03T20:25:41.068Z,95856.75
2023-10-03T20:28:07.824Z,95868.31
2023-10-03T20:30:36.290Z,95885.53
2023-10-03T20:33:03.337Z,95872.88
2023-10-03T20:35:30.053Z,95872.34
2023-10-03T20:37:57.240Z,95887.16
2023-10-03T20:40:24.108Z,95889.28
2023-10-03T20:42:50.726Z,95905.16
2023-10-03T20:45:17.528Z,95915.38
2023-10-03T20:47:45.560Z,95920.75
2023-10-03T20:50:12.396Z,95930.38
2023-10-03T20:52:39.495Z,95935.19
2023-10-03T20:55:08.244Z,95931.97
2023-10-03T20:57:34.980Z,95933.66
2023-10-03T21:00:03.972Z,95945.16
2023-10-03T21:02:30.861Z,95954.31
2023-10-03T21:04:59.979Z,95966.75
2023-10-03T21:07:26.695Z,95974.72
2023-10-03T21:09:55.299Z,95980.16
2023-10-03T21:12:23.667Z,95981.91
2023-10-03T21:14:50.969Z,96000.00
2023-10-03T21:17:17.722Z,95996.16
2023-10-03T21:19:44.527Z,95993.28
2023-10-03T21:22:12.543Z,95991.88
2023-10-03T21:24:39.189Z,95990.84
2023-10-03T21:27:05.839Z,95993.56
2023-10-03T21:29:33.750Z,95992.88
2023-10-03T21:32:00.446Z,95992.16
2023-10-03T21:34:27.273Z,96000.00
2023-10-03T21:36:55.385Z,96006.44
2023-10-03T21:39:23.444Z,96005.91
2023-10-03T21:41:50.326Z,95999.06
2023-10-03T21:44:17.047Z,96001.88
2023-10-03T21:46:43.994Z,95998.13
2023-10-03T21:49:10.834Z,95997.84
2023-10-03T21:51:38.548Z,95980.63
2023-10-03T21:54:05.551Z,95990.03
2023-10-03T21:56:33.624Z,95989.47
2023-10-03T21:59:01.682Z,96001.84
2023-10-03T22:01:28.608Z,95996.97
2023-10-03T22:03:55.476Z,96000.00
2023-10-03T22:06:22.713Z,95992.91
2023-10-03T22:08:49.922Z,95981.34
2023-10-03T22:11:19.033Z,95974.34
2023-10-03T22:13:47.121Z,95964.16
2023-10-03T22:16:17.412Z,95965.47
2023-10-03T22:18:45.085Z,95971.66
2023-10-03T22:21:16.197Z,95970.31
2023-10-03T22:23:42.858Z,95976.47
2023-10-03T22:26:10.281Z,95983.19
2023-10-03T22:28:37.070Z,95983.44
2023-10-03T22:31:05.038Z,95980.72
2023-10-03T22:33:31.704Z,95978.31
2023-10-03T22:36:00.138Z,95983.16
2023-10-03T22:38:27.028Z,95986.38
2023-10-03T22:40:54.103Z,95992.00
2023-10-03T22:43:20.808Z,95997.38
2023-10-03T22:45:47.717Z,95984.41
2023-10-03T22:48:15.913Z,95979.88
2023-10-03T22:50:42.715Z,95985.25
2023-10-03T22:53:11.262Z,95990.09
2023-10-03T22:55:38.664Z,95992.75
2023-10-03T22:58:05.289Z,95986.84
2023-10-03T23:00:32.080Z,95985.50
2023-10-03T23:03:00.946Z,95984.97
2023-10-03T23:05:29.988Z,95980.91
2023-10-03T23:07:56.777Z,95987.66
2023-10-03T23:10:24.322Z,95989.53
2023-10-03T23:12:51.167Z,95984.97
2023-10-03T23:15:18.563Z,95983.34
2023-10-03T23:17:45.308Z,95976.28
2023-10-03T23:20:12.545Z,95983.28
2023-10-03T23:22:40.650Z,95973.84
2023-10-03T23:25:09.473Z,95971.72
2023-10-03T23:27:36.210Z,95990.03
2023-10-03T23:30:03.162Z,95978.97
2023-10-03T23:32:32.736Z,95971.72
2023-10-03T23:34:59.829Z,95970.63
2023-10-03T23:37:26.938Z,95966.75
2023-10-03T23:39:54.979Z,95970.09
2023-10-03T23:42:23.480Z,95971.72
2023-10-03T23:44:51.596Z,95976.53
2023-10-03T23:47:18.839Z,95964.75
2023-10-03T23:49:45.556Z,95969.63
2023-10-03T23:52:15.173Z,95974.03
2023-10-03T23:54:42.128Z,95963.97
2023-10-03T23:57:18.236Z,95972.66
2023-10-03T23:59:45.508Z,95974.91
